sensor_id;sensor_type;location;lat;lon;timestamp;P1;durP1;ratioP1;P2;durP2;ratioP2
18076;SDS011;9165;45.714;11.362;2023-03-23T00:00:48;27.77;;;18.17;;
18076;SDS011;9165;45.714;11.362;2023-03-23T00:03:14;27.10;;;17.37;;
18076;SDS011;9165;45.714;11.362;2023-03-23T00:05:42;26.63;;;17.17;;
18076;SDS011;9165;45.714;11.362;2023-03-23T00:08:15;27.67;;;18.30;;
18076;SDS011;9165;45.714;11.362;2023-03-23T00:10:41;28.03;;;17.67;;
18076;SDS011;9165;45.714;11.362;2023-03-23T00:13:10;25.97;;;17.80;;
18076;SDS011;9165;45.714;11.362;2023-03-23T00:15:38;34.17;;;18.53;;
18076;SDS011;9165;45.714;11.362;2023-03-23T00:18:06;29.87;;;19.20;;
18076;SDS011;9165;45.714;11.362;2023-03-23T00:20:33;30.70;;;19.00;;
18076;SDS011;9165;45.714;11.362;2023-03-23T00:23:05;37.00;;;19.00;;
18076;SDS011;9165;45.714;11.362;2023-03-23T00:25:32;29.10;;;18.53;;
18076;SDS011;9165;45.714;11.362;2023-03-23T00:27:59;31.13;;;20.60;;
18076;SDS011;9165;45.714;11.362;2023-03-23T00:30:29;35.40;;;21.07;;
18076;SDS011;9165;45.714;11.362;2023-03-23T00:32:56;29.53;;;18.67;;
18076;SDS011;9165;45.714;11.362;2023-03-23T00:35:23;46.50;;;21.33;;
18076;SDS011;9165;45.714;11.362;2023-03-23T00:37:50;31.43;;;18.47;;
18076;SDS011;9165;45.714;11.362;2023-03-23T00:40:16;30.00;;;19.10;;
18076;SDS011;9165;45.714;11.362;2023-03-23T00:42:43;28.53;;;18.77;;
18076;SDS011;9165;45.714;11.362;2023-03-23T00:45:11;30.30;;;18.87;;
18076;SDS011;9165;45.714;11.362;2023-03-23T00:47:41;29.03;;;18.53;;
18076;SDS011;9165;45.714;11.362;2023-03-23T00:50:11;29.63;;;19.60;;
18076;SDS011;9165;45.714;11.362;2023-03-23T00:52:38;29.07;;;19.67;;
18076;SDS011;9165;45.714;11.362;2023-03-23T00:55:06;29.03;;;19.20;;
18076;SDS011;9165;45.714;11.362;2023-03-23T00:57:32;29.57;;;18.90;;
18076;SDS011;9165;45.714;11.362;2023-03-23T00:59:59;32.63;;;19.10;;
18076;SDS011;9165;45.714;11.362;2023-03-23T01:02:26;30.57;;;18.43;;
18076;SDS011;9165;45.714;11.362;2023-03-23T01:04:54;25.73;;;19.23;;
18076;SDS011;9165;45.714;11.362;2023-03-23T01:07:21;37.00;;;20.27;;
18076;SDS011;9165;45.714;11.362;2023-03-23T01:09:48;27.67;;;19.23;;
18076;SDS011;9165;45.714;11.362;2023-03-23T01:12:18;30.90;;;18.90;;
18076;SDS011;9165;45.714;11.362;2023-03-23T01:14:45;30.77;;;19.43;;
18076;SDS011;9165;45.714;11.362;2023-03-23T01:17:13;31.30;;;19.77;;
18076;SDS011;9165;45.714;11.362;2023-03-23T01:19:39;34.83;;;19.53;;
18076;SDS011;9165;45.714;11.362;2023-03-23T01:22:08;31.47;;;18.77;;
18076;SDS011;9165;45.714;11.362;2023-03-23T01:24:35;32.20;;;20.37;;
18076;SDS011;9165;45.714;11.362;2023-03-23T01:27:02;31.37;;;19.47;;
18076;SDS011;9165;45.714;11.362;2023-03-23T01:29:31;32.97;;;19.50;;
18076;SDS011;9165;45.714;11.362;2023-03-23T01:31:58;30.73;;;18.67;;
18076;SDS011;9165;45.714;11.362;2023-03-23T01:34:25;34.70;;;20.47;;
18076;SDS011;9165;45.714;11.362;2023-03-23T01:36:52;40.87;;;20.03;;
18076;SDS011;9165;45.714;11.362;2023-03-23T01:39:20;32.53;;;19.13;;
18076;SDS011;9165;45.714;11.362;2023-03-23T01:41:46;37.70;;;20.77;;
18076;SDS011;9165;45.714;11.362;2023-03-23T01:46:58;30.60;;;20.10;;
18076;SDS011;9165;45.714;11.362;2023-03-23T01:49:26;30.17;;;19.50;;
18076;SDS011;9165;45.714;11.362;2023-03-23T01:51:54;30.47;;;20.33;;
18076;SDS011;9165;45.714;11.362;2023-03-23T01:54:24;31.03;;;19.97;;
18076;SDS011;9165;45.714;11.362;2023-03-23T01:56:53;31.10;;;19.10;;
18076;SDS011;9165;45.714;11.362;2023-03-23T01:59:21;45.90;;;20.07;;
18076;SDS011;9165;45.714;11.362;2023-03-23T02:01:50;35.40;;;19.57;;
18076;SDS011;9165;45.714;11.362;2023-03-23T02:04:18;32.83;;;18.07;;
18076;SDS011;9165;45.714;11.362;2023-03-23T02:06:46;32.73;;;19.63;;
18076;SDS011;9165;45.714;11.362;2023-03-23T02:09:13;28.37;;;18.23;;
18076;SDS011;9165;45.714;11.362;2023-03-23T02:11:43;33.17;;;19.83;;
18076;SDS011;9165;45.714;11.362;2023-03-23T02:14:10;32.03;;;19.27;;
18076;SDS011;9165;45.714;11.362;2023-03-23T02:16:39;29.67;;;19.60;;
18076;SDS011;9165;45.714;11.362;2023-03-23T02:19:22;34.43;;;20.50;;
18076;SDS011;9165;45.714;11.362;2023-03-23T02:24:58;30.80;;;19.00;;
18076;SDS011;9165;45.714;11.362;2023-03-23T02:27:35;33.60;;;20.03;;
18076;SDS011;9165;45.714;11.362;2023-03-23T02:30:09;35.53;;;19.17;;
18076;SDS011;9165;45.714;11.362;2023-03-23T02:35:23;31.83;;;20.23;;
18076;SDS011;9165;45.714;11.362;2023-03-23T02:37:55;32.53;;;19.13;;
18076;SDS011;9165;45.714;11.362;2023-03-23T02:40:24;34.17;;;20.40;;
18076;SDS011;9165;45.714;11.362;2023-03-23T02:42:53;29.43;;;18.47;;
18076;SDS011;9165;45.714;11.362;2023-03-23T02:45:20;32.50;;;18.83;;
18076;SDS011;9165;45.714;11.362;2023-03-23T02:47:48;29.90;;;18.03;;
18076;SDS011;9165;45.714;11.362;2023-03-23T02:50:15;30.30;;;17.20;;
18076;SDS011;9165;45.714;11.362;2023-03-23T02:52:45;33.23;;;20.40;;
18076;SDS011;9165;45.714;11.362;2023-03-23T02:55:13;31.80;;;19.57;;
18076;SDS011;9165;45.714;11.362;2023-03-23T02:57:41;34.90;;;20.17;;
18076;SDS011;9165;45.714;11.362;2023-03-23T03:00:11;30.67;;;19.27;;
18076;SDS011;9165;45.714;11.362;2023-03-23T03:02:39;29.80;;;18.73;;
18076;SDS011;9165;45.714;11.362;2023-03-23T03:05:08;32.93;;;18.77;;
18076;SDS011;9165;45.714;11.362;2023-03-23T03:07:46;30.03;;;18.87;;
18076;SDS011;9165;45.714;11.362;2023-03-23T03:10:15;32.57;;;19.53;;
18076;SDS011;9165;45.714;11.362;2023-03-23T03:12:46;27.77;;;17.40;;
18076;SDS011;9165;45.714;11.362;2023-03-23T03:15:19;32.10;;;19.07;;
18076;SDS011;9165;45.714;11.362;2023-03-23T03:17:48;29.70;;;18.90;;
18076;SDS011;9165;45.714;11.362;2023-03-23T03:20:17;30.67;;;19.17;;
18076;SDS011;9165;45.714;11.362;2023-03-23T03:22:46;34.97;;;19.87;;
18076;SDS011;9165;45.714;11.362;2023-03-23T03:25:13;30.20;;;18.03;;
18076;SDS011;9165;45.714;11.362;2023-03-23T03:27:42;27.77;;;17.57;;
18076;SDS011;9165;45.714;11.362;2023-03-23T03:30:11;31.07;;;19.90;;
18076;SDS011;9165;45.714;11.362;2023-03-23T03:32:41;28.53;;;17.57;;
18076;SDS011;9165;45.714;11.362;2023-03-23T03:35:08;28.53;;;18.00;;
18076;SDS011;9165;45.714;11.362;2023-03-23T03:37:36;32.30;;;18.03;;
18076;SDS011;9165;45.714;11.362;2023-03-23T03:40:07;31.10;;;18.20;;
18076;SDS011;9165;45.714;11.362;2023-03-23T03:42:37;31.07;;;18.20;;
18076;SDS011;9165;45.714;11.362;2023-03-23T03:45:04;29.03;;;18.33;;
18076;SDS011;9165;45.714;11.362;2023-03-23T03:47:32;27.47;;;17.73;;
18076;SDS011;9165;45.714;11.362;2023-03-23T03:49:59;28.60;;;18.30;;
18076;SDS011;9165;45.714;11.362;2023-03-23T03:52:26;34.43;;;17.20;;
18076;SDS011;9165;45.714;11.362;2023-03-23T03:54:53;47.57;;;19.03;;
18076;SDS011;9165;45.714;11.362;2023-03-23T03:57:22;31.53;;;17.03;;
18076;SDS011;9165;45.714;11.362;2023-03-23T03:59:49;28.27;;;16.90;;
18076;SDS011;9165;45.714;11.362;2023-03-23T04:02:16;28.93;;;17.37;;
18076;SDS011;9165;45.714;11.362;2023-03-23T04:04:45;26.93;;;18.60;;
18076;SDS011;9165;45.714;11.362;2023-03-23T04:07:12;30.27;;;19.30;;
18076;SDS011;9165;45.714;11.362;2023-03-23T04:09:39;27.20;;;17.33;;
18076;SDS011;9165;45.714;11.362;2023-03-23T04:12:05;27.10;;;17.87;;
18076;SDS011;9165;45.714;11.362;2023-03-23T04:14:33;31.93;;;18.47;;
18076;SDS011;9165;45.714;11.362;2023-03-23T04:17:00;26.20;;;17.20;;
18076;SDS011;9165;45.714;11.362;2023-03-23T04:19:27;31.13;;;17.70;;
18076;SDS011;9165;45.714;11.362;2023-03-23T04:21:57;24.03;;;15.43;;
18076;SDS011;9165;45.714;11.362;2023-03-23T04:24:24;32.90;;;18.13;;
18076;SDS011;9165;45.714;11.362;2023-03-23T04:26:53;24.80;;;16.30;;
18076;SDS011;9165;45.714;11.362;2023-03-23T04:29:20;24.90;;;17.00;;
18076;SDS011;9165;45.714;11.362;2023-03-23T04:34:30;31.77;;;18.53;;
18076;SDS011;9165;45.714;11.362;2023-03-23T04:37:00;27.07;;;17.13;;
18076;SDS011;9165;45.714;11.362;2023-03-23T04:39:27;31.03;;;17.40;;
18076;SDS011;9165;45.714;11.362;2023-03-23T04:41:55;26.37;;;17.43;;
18076;SDS011;9165;45.714;11.362;2023-03-23T04:53:45;25.67;;;17.83;;
18076;SDS011;9165;45.714;11.362;2023-03-23T04:56:12;29.20;;;18.23;;
18076;SDS011;9165;45.714;11.362;2023-03-23T04:58:41;26.73;;;17.47;;
18076;SDS011;9165;45.714;11.362;2023-03-23T05:01:09;30.07;;;17.80;;
18076;SDS011;9165;45.714;11.362;2023-03-23T05:03:40;27.83;;;17.87;;
18076;SDS011;9165;45.714;11.362;2023-03-23T05:06:07;29.93;;;17.63;;
18076;SDS011;9165;45.714;11.362;2023-03-23T05:08:34;35.17;;;17.33;;
18076;SDS011;9165;45.714;11.362;2023-03-23T05:11:05;26.80;;;18.67;;
18076;SDS011;9165;45.714;11.362;2023-03-23T05:13:33;27.10;;;16.43;;
18076;SDS011;9165;45.714;11.362;2023-03-23T05:16:17;32.00;;;18.40;;
18076;SDS011;9165;45.714;11.362;2023-03-23T05:18:58;26.83;;;17.33;;
18076;SDS011;9165;45.714;11.362;2023-03-23T05:21:26;27.40;;;17.37;;
18076;SDS011;9165;45.714;11.362;2023-03-23T05:23:53;30.37;;;17.17;;
18076;SDS011;9165;45.714;11.362;2023-03-23T05:26:31;30.07;;;17.30;;
18076;SDS011;9165;45.714;11.362;2023-03-23T05:29:02;28.40;;;17.30;;
18076;SDS011;9165;45.714;11.362;2023-03-23T05:31:44;29.40;;;18.53;;
18076;SDS011;9165;45.714;11.362;2023-03-23T05:34:41;31.53;;;18.87;;
18076;SDS011;9165;45.714;11.362;2023-03-23T05:39:33;28.87;;;18.00;;
18076;SDS011;9165;45.714;11.362;2023-03-23T05:42:01;27.10;;;17.43;;
18076;SDS011;9165;45.714;11.362;2023-03-23T05:44:28;30.87;;;17.90;;
18076;SDS011;9165;45.714;11.362;2023-03-23T05:47:09;32.10;;;19.23;;
18076;SDS011;9165;45.714;11.362;2023-03-23T05:49:35;29.30;;;17.03;;
18076;SDS011;9165;45.714;11.362;2023-03-23T05:52:03;65.67;;;19.63;;
18076;SDS011;9165;45.714;11.362;2023-03-23T05:54:40;29.17;;;18.27;;
18076;SDS011;9165;45.714;11.362;2023-03-23T05:57:08;30.00;;;17.67;;
18076;SDS011;9165;45.714;11.362;2023-03-23T05:59:35;36.43;;;18.13;;
18076;SDS011;9165;45.714;11.362;2023-03-23T06:02:02;27.30;;;18.10;;
18076;SDS011;9165;45.714;11.362;2023-03-23T06:04:29;29.13;;;18.67;;
18076;SDS011;9165;45.714;11.362;2023-03-23T06:06:58;27.90;;;17.80;;
18076;SDS011;9165;45.714;11.362;2023-03-23T06:09:25;32.87;;;17.67;;
18076;SDS011;9165;45.714;11.362;2023-03-23T06:11:51;28.47;;;17.83;;
18076;SDS011;9165;45.714;11.362;2023-03-23T06:14:19;42.30;;;17.60;;
18076;SDS011;9165;45.714;11.362;2023-03-23T06:16:47;30.93;;;18.73;;
18076;SDS011;9165;45.714;11.362;2023-03-23T06:19:13;29.03;;;17.17;;
18076;SDS011;9165;45.714;11.362;2023-03-23T06:21:41;36.23;;;17.57;;
18076;SDS011;9165;45.714;11.362;2023-03-23T06:24:07;33.93;;;18.93;;
18076;SDS011;9165;45.714;11.362;2023-03-23T06:26:36;31.87;;;18.73;;
18076;SDS011;9165;45.714;11.362;2023-03-23T06:29:02;27.27;;;18.47;;
18076;SDS011;9165;45.714;11.362;2023-03-23T06:31:37;33.40;;;19.90;;
18076;SDS011;9165;45.714;11.362;2023-03-23T06:34:04;33.77;;;21.97;;
18076;SDS011;9165;45.714;11.362;2023-03-23T06:36:31;32.23;;;21.67;;
18076;SDS011;9165;45.714;11.362;2023-03-23T06:38:57;34.57;;;22.60;;
18076;SDS011;9165;45.714;11.362;2023-03-23T06:41:24;41.30;;;24.20;;
18076;SDS011;9165;45.714;11.362;2023-03-23T06:43:51;36.23;;;23.67;;
18076;SDS011;9165;45.714;11.362;2023-03-23T06:46:18;39.07;;;24.07;;
18076;SDS011;9165;45.714;11.362;2023-03-23T06:48:46;38.23;;;25.43;;
18076;SDS011;9165;45.714;11.362;2023-03-23T06:51:14;36.97;;;24.73;;
18076;SDS011;9165;45.714;11.362;2023-03-23T06:53:42;37.70;;;24.27;;
18076;SDS011;9165;45.714;11.362;2023-03-23T06:56:09;40.43;;;26.30;;
18076;SDS011;9165;45.714;11.362;2023-03-23T06:58:36;44.37;;;25.33;;
18076;SDS011;9165;45.714;11.362;2023-03-23T07:01:03;40.37;;;25.40;;
18076;SDS011;9165;45.714;11.362;2023-03-23T07:03:30;42.20;;;25.57;;
18076;SDS011;9165;45.714;11.362;2023-03-23T07:05:58;37.10;;;22.17;;
18076;SDS011;9165;45.714;11.362;2023-03-23T07:08:25;35.20;;;21.97;;
18076;SDS011;9165;45.714;11.362;2023-03-23T07:10:52;32.33;;;22.43;;
18076;SDS011;9165;45.714;11.362;2023-03-23T07:13:19;34.07;;;21.73;;
18076;SDS011;9165;45.714;11.362;2023-03-23T07:15:46;32.80;;;21.53;;
18076;SDS011;9165;45.714;11.362;2023-03-23T07:18:13;41.70;;;24.20;;
18076;SDS011;9165;45.714;11.362;2023-03-23T07:20:40;36.70;;;22.57;;
18076;SDS011;9165;45.714;11.362;2023-03-23T07:23:09;37.47;;;22.03;;
18076;SDS011;9165;45.714;11.362;2023-03-23T07:25:36;31.20;;;21.70;;
18076;SDS011;9165;45.714;11.362;2023-03-23T07:31:07;37.30;;;22.90;;
18076;SDS011;9165;45.714;11.362;2023-03-23T07:33:34;30.23;;;20.90;;
18076;SDS011;9165;45.714;11.362;2023-03-23T07:36:02;34.43;;;21.33;;
18076;SDS011;9165;45.714;11.362;2023-03-23T07:38:31;34.80;;;22.60;;
18076;SDS011;9165;45.714;11.362;2023-03-23T07:40:58;31.33;;;21.67;;
18076;SDS011;9165;45.714;11.362;2023-03-23T07:43:24;38.27;;;25.03;;
18076;SDS011;9165;45.714;11.362;2023-03-23T07:45:51;30.37;;;20.63;;
18076;SDS011;9165;45.714;11.362;2023-03-23T07:48:18;39.00;;;24.63;;
18076;SDS011;9165;45.714;11.362;2023-03-23T07:50:45;40.67;;;24.03;;
18076;SDS011;9165;45.714;11.362;2023-03-23T07:53:12;33.03;;;23.70;;
18076;SDS011;9165;45.714;11.362;2023-03-23T07:55:40;40.77;;;24.00;;
18076;SDS011;9165;45.714;11.362;2023-03-23T07:58:07;34.93;;;23.50;;
18076;SDS011;9165;45.714;11.362;2023-03-23T08:00:34;36.10;;;24.97;;
18076;SDS011;9165;45.714;11.362;2023-03-23T08:03:00;32.53;;;21.50;;
18076;SDS011;9165;45.714;11.362;2023-03-23T08:05:27;37.27;;;23.47;;
18076;SDS011;9165;45.714;11.362;2023-03-23T08:07:55;35.00;;;23.67;;
18076;SDS011;9165;45.714;11.362;2023-03-23T08:10:22;37.27;;;23.23;;
18076;SDS011;9165;45.714;11.362;2023-03-23T08:12:52;30.83;;;22.20;;
18076;SDS011;9165;45.714;11.362;2023-03-23T08:15:19;30.43;;;22.27;;
18076;SDS011;9165;45.714;11.362;2023-03-23T08:17:47;33.03;;;22.13;;
18076;SDS011;9165;45.714;11.362;2023-03-23T08:20:14;37.00;;;25.17;;
18076;SDS011;9165;45.714;11.362;2023-03-23T08:22:42;31.03;;;22.37;;
18076;SDS011;9165;45.714;11.362;2023-03-23T08:25:10;29.87;;;22.63;;
18076;SDS011;9165;45.714;11.362;2023-03-23T08:30:23;31.13;;;21.67;;
18076;SDS011;9165;45.714;11.362;2023-03-23T08:32:51;32.23;;;21.87;;
18076;SDS011;9165;45.714;11.362;2023-03-23T08:35:18;32.67;;;23.23;;
18076;SDS011;9165;45.714;11.362;2023-03-23T08:37:46;31.27;;;23.37;;
18076;SDS011;9165;45.714;11.362;2023-03-23T08:40:16;38.43;;;24.13;;
18076;SDS011;9165;45.714;11.362;2023-03-23T08:42:44;34.30;;;23.53;;
18076;SDS011;9165;45.714;11.362;2023-03-23T08:45:13;31.70;;;23.17;;
18076;SDS011;9165;45.714;11.362;2023-03-23T08:47:43;34.53;;;23.57;;
18076;SDS011;9165;45.714;11.362;2023-03-23T08:50:10;37.93;;;23.33;;
18076;SDS011;9165;45.714;11.362;2023-03-23T08:52:38;33.73;;;23.80;;
18076;SDS011;9165;45.714;11.362;2023-03-23T08:55:05;32.27;;;23.07;;
18076;SDS011;9165;45.714;11.362;2023-03-23T08:57:34;39.87;;;23.43;;
18076;SDS011;9165;45.714;11.362;2023-03-23T09:00:01;39.30;;;25.17;;
18076;SDS011;9165;45.714;11.362;2023-03-23T09:02:38;36.83;;;25.27;;
18076;SDS011;9165;45.714;11.362;2023-03-23T09:05:07;35.93;;;26.40;;
18076;SDS011;9165;45.714;11.362;2023-03-23T09:07:35;35.87;;;24.23;;
18076;SDS011;9165;45.714;11.362;2023-03-23T09:10:02;32.87;;;23.47;;
18076;SDS011;9165;45.714;11.362;2023-03-23T09:12:29;35.10;;;26.00;;
18076;SDS011;9165;45.714;11.362;2023-03-23T09:14:56;33.07;;;24.67;;
18076;SDS011;9165;45.714;11.362;2023-03-23T09:17:22;34.27;;;24.57;;
18076;SDS011;9165;45.714;11.362;2023-03-23T09:19:49;35.00;;;25.70;;
18076;SDS011;9165;45.714;11.362;2023-03-23T09:54:21;39.10;;;26.53;;
18076;SDS011;9165;45.714;11.362;2023-03-23T09:56:49;41.13;;;27.20;;
18076;SDS011;9165;45.714;11.362;2023-03-23T09:59:19;42.45;;;26.95;;
18076;SDS011;9165;45.714;11.362;2023-03-23T10:01:47;32.87;;;25.87;;
18076;SDS011;9165;45.714;11.362;2023-03-23T10:04:15;35.57;;;26.60;;
18076;SDS011;9165;45.714;11.362;2023-03-23T10:06:45;36.80;;;26.30;;
18076;SDS011;9165;45.714;11.362;2023-03-23T10:09:14;37.03;;;26.10;;
18076;SDS011;9165;45.714;11.362;2023-03-23T10:11:45;35.60;;;25.40;;
18076;SDS011;9165;45.714;11.362;2023-03-23T10:14:20;33.93;;;24.07;;
18076;SDS011;9165;45.714;11.362;2023-03-23T10:16:54;41.20;;;28.27;;
18076;SDS011;9165;45.714;11.362;2023-03-23T10:19:25;39.30;;;27.97;;
18076;SDS011;9165;45.714;11.362;2023-03-23T10:21:59;47.57;;;28.87;;
18076;SDS011;9165;45.714;11.362;2023-03-23T10:24:29;39.43;;;30.43;;
18076;SDS011;9165;45.714;11.362;2023-03-23T10:27:01;38.50;;;26.20;;
18076;SDS011;9165;45.714;11.362;2023-03-23T10:29:31;36.27;;;24.53;;
18076;SDS011;9165;45.714;11.362;2023-03-23T10:32:03;31.37;;;23.40;;
18076;SDS011;9165;45.714;11.362;2023-03-23T10:34:31;31.10;;;21.27;;
18076;SDS011;9165;45.714;11.362;2023-03-23T10:37:01;29.83;;;21.43;;
18076;SDS011;9165;45.714;11.362;2023-03-23T10:39:30;35.43;;;23.07;;
18076;SDS011;9165;45.714;11.362;2023-03-23T10:42:01;36.80;;;23.63;;
18076;SDS011;9165;45.714;11.362;2023-03-23T10:44:32;35.33;;;26.13;;
18076;SDS011;9165;45.714;11.362;2023-03-23T10:47:00;33.13;;;24.63;;
18076;SDS011;9165;45.714;11.362;2023-03-23T10:49:28;33.73;;;26.17;;
18076;SDS011;9165;45.714;11.362;2023-03-23T10:51:57;33.07;;;24.97;;
18076;SDS011;9165;45.714;11.362;2023-03-23T10:54:26;34.93;;;23.80;;
18076;SDS011;9165;45.714;11.362;2023-03-23T10:56:53;32.33;;;24.43;;
18076;SDS011;9165;45.714;11.362;2023-03-23T10:59:26;32.70;;;23.67;;
18076;SDS011;9165;45.714;11.362;2023-03-23T11:01:54;33.57;;;25.40;;
18076;SDS011;9165;45.714;11.362;2023-03-23T11:04:22;34.23;;;24.93;;
18076;SDS011;9165;45.714;11.362;2023-03-23T11:06:51;33.30;;;26.07;;
18076;SDS011;9165;45.714;11.362;2023-03-23T11:09:19;37.20;;;23.30;;
18076;SDS011;9165;45.714;11.362;2023-03-23T11:11:48;33.30;;;26.17;;
18076;SDS011;9165;45.714;11.362;2023-03-23T11:14:16;34.40;;;26.47;;
18076;SDS011;9165;45.714;11.362;2023-03-23T11:16:49;36.73;;;23.63;;
18076;SDS011;9165;45.714;11.362;2023-03-23T11:19:20;33.63;;;25.70;;
18076;SDS011;9165;45.714;11.362;2023-03-23T11:21:49;34.27;;;26.23;;
18076;SDS011;9165;45.714;11.362;2023-03-23T11:24:16;36.27;;;26.47;;
18076;SDS011;9165;45.714;11.362;2023-03-23T11:26:43;43.63;;;28.37;;
18076;SDS011;9165;45.714;11.362;2023-03-23T11:29:12;35.80;;;26.37;;
18076;SDS011;9165;45.714;11.362;2023-03-23T11:31:41;38.70;;;28.07;;
18076;SDS011;9165;45.714;11.362;2023-03-23T11:34:13;37.97;;;28.33;;
18076;SDS011;9165;45.714;11.362;2023-03-23T11:36:41;39.13;;;28.90;;
18076;SDS011;9165;45.714;11.362;2023-03-23T11:39:19;38.37;;;28.63;;
18076;SDS011;9165;45.714;11.362;2023-03-23T11:41:47;39.13;;;29.30;;
18076;SDS011;9165;45.714;11.362;2023-03-23T11:44:14;44.17;;;31.03;;
18076;SDS011;9165;45.714;11.362;2023-03-23T11:46:44;45.63;;;30.53;;
18076;SDS011;9165;45.714;11.362;2023-03-23T11:49:18;41.17;;;30.03;;
18076;SDS011;9165;45.714;11.362;2023-03-23T11:51:48;46.47;;;31.93;;
18076;SDS011;9165;45.714;11.362;2023-03-23T11:54:17;40.93;;;31.67;;
18076;SDS011;9165;45.714;11.362;2023-03-23T11:56:46;44.33;;;32.60;;
18076;SDS011;9165;45.714;11.362;2023-03-23T11:59:14;41.73;;;30.70;;
18076;SDS011;9165;45.714;11.362;2023-03-23T12:01:50;44.17;;;31.33;;
18076;SDS011;9165;45.714;11.362;2023-03-23T13:13:06;37.50;;;29.85;;
18076;SDS011;9165;45.714;11.362;2023-03-23T13:15:40;36.00;;;28.67;;
18076;SDS011;9165;45.714;11.362;2023-03-23T13:18:12;37.95;;;28.60;;
18076;SDS011;9165;45.714;11.362;2023-03-23T13:23:09;33.60;;;27.10;;
18076;SDS011;9165;45.714;11.362;2023-03-23T13:25:46;44.03;;;30.67;;
18076;SDS011;9165;45.714;11.362;2023-03-23T13:28:16;36.20;;;30.47;;
18076;SDS011;9165;45.714;11.362;2023-03-23T13:33:12;36.37;;;29.50;;
18076;SDS011;9165;45.714;11.362;2023-03-23T13:35:41;38.50;;;29.30;;
18076;SDS011;9165;45.714;11.362;2023-03-23T13:38:12;35.00;;;28.33;;
18076;SDS011;9165;45.714;11.362;2023-03-23T13:40:41;40.33;;;29.77;;
18076;SDS011;9165;45.714;11.362;2023-03-23T13:43:08;36.73;;;28.43;;
18076;SDS011;9165;45.714;11.362;2023-03-23T13:45:44;33.37;;;25.97;;
18076;SDS011;9165;45.714;11.362;2023-03-23T13:48:19;36.87;;;29.50;;
18076;SDS011;9165;45.714;11.362;2023-03-23T13:50:49;35.53;;;28.47;;
18076;SDS011;9165;45.714;11.362;2023-03-23T13:53:22;38.10;;;29.03;;
18076;SDS011;9165;45.714;11.362;2023-03-23T13:55:50;36.87;;;28.97;;
18076;SDS011;9165;45.714;11.362;2023-03-23T13:58:21;33.47;;;28.70;;
18076;SDS011;9165;45.714;11.362;2023-03-23T14:00:50;38.27;;;29.30;;
18076;SDS011;9165;45.714;11.362;2023-03-23T14:03:31;39.47;;;29.37;;
18076;SDS011;9165;45.714;11.362;2023-03-23T14:06:03;41.30;;;30.77;;
18076;SDS011;9165;45.714;11.362;2023-03-23T14:08:37;35.80;;;26.63;;
18076;SDS011;9165;45.714;11.362;2023-03-23T14:11:09;34.63;;;26.07;;
18076;SDS011;9165;45.714;11.362;2023-03-23T14:13:38;34.20;;;26.60;;
18076;SDS011;9165;45.714;11.362;2023-03-23T14:16:13;34.30;;;26.10;;
18076;SDS011;9165;45.714;11.362;2023-03-23T14:18:42;37.83;;;26.87;;
18076;SDS011;9165;45.714;11.362;2023-03-23T14:21:14;38.37;;;26.73;;
18076;SDS011;9165;45.714;11.362;2023-03-23T14:23:41;38.07;;;27.97;;
18076;SDS011;9165;45.714;11.362;2023-03-23T14:26:10;37.53;;;28.10;;
18076;SDS011;9165;45.714;11.362;2023-03-23T14:28:38;40.40;;;29.43;;
18076;SDS011;9165;45.714;11.362;2023-03-23T14:31:08;36.37;;;25.87;;
18076;SDS011;9165;45.714;11.362;2023-03-23T14:33:38;37.03;;;27.20;;
18076;SDS011;9165;45.714;11.362;2023-03-23T14:36:07;34.40;;;25.73;;
18076;SDS011;9165;45.714;11.362;2023-03-23T14:38:33;36.80;;;25.90;;
18076;SDS011;9165;45.714;11.362;2023-03-23T14:41:02;40.50;;;28.63;;
18076;SDS011;9165;45.714;11.362;2023-03-23T14:43:29;32.47;;;25.13;;
18076;SDS011;9165;45.714;11.362;2023-03-23T14:45:58;40.37;;;27.53;;
18076;SDS011;9165;45.714;11.362;2023-03-23T14:48:26;37.97;;;26.87;;
18076;SDS011;9165;45.714;11.362;2023-03-23T14:50:55;37.03;;;27.83;;
18076;SDS011;9165;45.714;11.362;2023-03-23T14:53:23;39.13;;;28.80;;
18076;SDS011;9165;45.714;11.362;2023-03-23T14:55:51;35.40;;;26.33;;
18076;SDS011;9165;45.714;11.362;2023-03-23T14:58:19;31.53;;;25.40;;
18076;SDS011;9165;45.714;11.362;2023-03-23T15:00:48;37.93;;;27.67;;
18076;SDS011;9165;45.714;11.362;2023-03-23T15:03:16;37.83;;;25.83;;
18076;SDS011;9165;45.714;11.362;2023-03-23T15:05:46;37.83;;;26.90;;
18076;SDS011;9165;45.714;11.362;2023-03-23T15:08:14;37.00;;;28.33;;
18076;SDS011;9165;45.714;11.362;2023-03-23T15:10:41;36.43;;;27.00;;
18076;SDS011;9165;45.714;11.362;2023-03-23T15:13:09;34.97;;;26.93;;
18076;SDS011;9165;45.714;11.362;2023-03-23T15:15:37;37.70;;;27.20;;
18076;SDS011;9165;45.714;11.362;2023-03-23T15:18:04;37.10;;;27.80;;
18076;SDS011;9165;45.714;11.362;2023-03-23T15:20:31;36.30;;;28.07;;
18076;SDS011;9165;45.714;11.362;2023-03-23T15:23:06;36.53;;;28.23;;
18076;SDS011;9165;45.714;11.362;2023-03-23T15:25:33;43.50;;;28.03;;
18076;SDS011;9165;45.714;11.362;2023-03-23T15:28:09;40.27;;;28.63;;
18076;SDS011;9165;45.714;11.362;2023-03-23T15:30:46;38.17;;;27.70;;
18076;SDS011;9165;45.714;11.362;2023-03-23T15:33:13;35.90;;;26.53;;
18076;SDS011;9165;45.714;11.362;2023-03-23T15:35:41;40.47;;;27.20;;
18076;SDS011;9165;45.714;11.362;2023-03-23T15:38:17;37.87;;;27.77;;
18076;SDS011;9165;45.714;11.362;2023-03-23T15:40:44;39.60;;;26.80;;
18076;SDS011;9165;45.714;11.362;2023-03-23T15:43:15;42.77;;;30.57;;
18076;SDS011;9165;45.714;11.362;2023-03-23T15:45:51;35.03;;;26.83;;
18076;SDS011;9165;45.714;11.362;2023-03-23T15:48:18;40.17;;;28.20;;
18076;SDS011;9165;45.714;11.362;2023-03-23T15:50:45;38.10;;;28.37;;
18076;SDS011;9165;45.714;11.362;2023-03-23T15:53:18;44.03;;;27.67;;
18076;SDS011;9165;45.714;11.362;2023-03-23T15:55:45;49.53;;;28.37;;
18076;SDS011;9165;45.714;11.362;2023-03-23T15:58:12;41.63;;;28.97;;
18076;SDS011;9165;45.714;11.362;2023-03-23T16:00:39;38.53;;;28.30;;
18076;SDS011;9165;45.714;11.362;2023-03-23T16:03:10;36.50;;;26.97;;
18076;SDS011;9165;45.714;11.362;2023-03-23T16:05:37;38.77;;;27.33;;
18076;SDS011;9165;45.714;11.362;2023-03-23T16:08:04;41.53;;;27.00;;
18076;SDS011;9165;45.714;11.362;2023-03-23T16:10:32;34.40;;;26.93;;
18076;SDS011;9165;45.714;11.362;2023-03-23T16:12:59;37.10;;;29.05;;
18076;SDS011;9165;45.714;11.362;2023-03-23T16:15:26;39.00;;;28.50;;
18076;SDS011;9165;45.714;11.362;2023-03-23T16:17:52;36.60;;;27.00;;
18076;SDS011;9165;45.714;11.362;2023-03-23T16:20:20;39.90;;;27.47;;
18076;SDS011;9165;45.714;11.362;2023-03-23T16:22:47;36.85;;;26.80;;
18076;SDS011;9165;45.714;11.362;2023-03-23T16:25:14;40.10;;;27.87;;
18076;SDS011;9165;45.714;11.362;2023-03-23T16:27:44;35.85;;;27.20;;
18076;SDS011;9165;45.714;11.362;2023-03-23T16:30:15;44.83;;;30.90;;
18076;SDS011;9165;45.714;11.362;2023-03-23T16:32:42;41.07;;;28.27;;
18076;SDS011;9165;45.714;11.362;2023-03-23T16:35:09;49.67;;;27.40;;
18076;SDS011;9165;45.714;11.362;2023-03-23T16:37:36;36.60;;;25.80;;
18076;SDS011;9165;45.714;11.362;2023-03-23T16:44:57;42.10;;;28.30;;
18076;SDS011;9165;45.714;11.362;2023-03-23T16:47:24;36.17;;;26.90;;
18076;SDS011;9165;45.714;11.362;2023-03-23T16:49:50;41.00;;;27.70;;